createdAt,value
2018-12-17T00:01:13.796Z,54.03
2018-12-17T00:03:15.912Z,47.60
2018-12-17T00:05:18.042Z,45.58
2018-12-17T00:07:20.184Z,57.33
2018-12-17T00:09:22.305Z,53.30
2018-12-17T00:11:24.743Z,53.05
2018-12-17T00:13:26.927Z,53.45
2018-12-17T00:15:29.064Z,57.20
2018-12-17T00:17:31.173Z,51.48
2018-12-17T00:19:33.308Z,56.37
2018-12-17T00:21:35.544Z,56.00
2018-12-17T00:23:37.665Z,52.98
2018-12-17T00:25:39.788Z,51.75
2018-12-17T00:27:41.907Z,52.00
2018-12-17T00:29:44.011Z,59.85
2018-12-17T00:31:46.123Z,54.67
2018-12-17T00:33:48.255Z,53.63
2018-12-17T00:35:50.472Z,46.08
2018-12-17T00:37:52.581Z,50.45
2018-12-17T00:39:54.797Z,53.48
2018-12-17T00:41:56.901Z,55.75
2018-12-17T00:43:59.240Z,49.67
2018-12-17T00:46:01.450Z,52.15
2018-12-17T00:48:03.672Z,48.52
2018-12-17T00:50:05.995Z,55.83
2018-12-17T00:52:08.319Z,44.45
2018-12-17T00:54:10.415Z,48.20
2018-12-17T00:56:12.799Z,50.83
2018-12-17T00:58:15.308Z,48.25
2018-12-17T01:00:17.628Z,48.63
2018-12-17T01:02:20.080Z,53.38
2018-12-17T01:04:22.174Z,48.35
2018-12-17T01:06:24.283Z,48.83
2018-12-17T01:08:26.521Z,47.53
2018-12-17T01:10:28.785Z,47.60
2018-12-17T01:12:30.895Z,49.95
2018-12-17T01:14:33.215Z,56.90
2018-12-17T01:16:35.332Z,50.78
2018-12-17T01:18:37.439Z,51.48
2018-12-17T01:20:39.656Z,49.55
2018-12-17T01:22:41.845Z,49.80
2018-12-17T01:24:43.953Z,54.00
2018-12-17T01:26:46.052Z,48.68
2018-12-17T01:28:48.515Z,45.40
2018-12-17T01:30:50.757Z,53.23
2018-12-17T01:32:52.997Z,56.05
2018-12-17T01:34:55.344Z,48.98
2018-12-17T01:36:57.452Z,54.70
2018-12-17T01:38:59.702Z,53.68
2018-12-17T01:41:02.066Z,57.03
2018-12-17T01:43:04.333Z,62.58
2018-12-17T01:45:06.688Z,57.50
2018-12-17T01:47:08.807Z,60.78
2018-12-17T01:49:11.018Z,54.58
2018-12-17T01:51:13.331Z,56.05
2018-12-17T01:53:15.432Z,55.80
2018-12-17T01:55:17.551Z,56.20
2018-12-17T01:57:19.843Z,47.73
2018-12-17T01:59:21.992Z,56.95
2018-12-17T02:01:24.114Z,60.15
2018-12-17T02:03:26.295Z,53.05
2018-12-17T02:05:28.423Z,51.20
2018-12-17T02:07:30.595Z,57.85
2018-12-17T02:09:32.735Z,64.55
2018-12-17T02:11:34.848Z,61.15
2018-12-17T02:13:37.375Z,58.40
2018-12-17T02:15:39.491Z,57.17
2018-12-17T02:17:41.856Z,58.65
2018-12-17T02:19:43.968Z,55.70
2018-12-17T02:21:46.187Z,58.55
2018-12-17T02:23:48.303Z,61.23
2018-12-17T02:25:50.512Z,53.05
2018-12-17T02:27:52.723Z,57.95
2018-12-17T02:29:54.840Z,60.98
2018-12-17T02:31:57.068Z,54.27
2018-12-17T02:33:59.292Z,60.65
2018-12-17T02:36:01.503Z,52.25
2018-12-17T02:38:03.616Z,54.13
2018-12-17T02:40:06.058Z,65.30
2018-12-17T02:42:08.519Z,59.42
2018-12-17T02:44:10.644Z,63.28
2018-12-17T02:46:12.747Z,53.45
2018-12-17T02:48:15.093Z,59.15
2018-12-17T02:50:17.308Z,62.80
2018-12-17T02:52:19.416Z,66.57
2018-12-17T02:54:21.609Z,58.13
2018-12-17T02:56:23.727Z,63.30
2018-12-17T02:58:25.941Z,54.15
2018-12-17T03:00:28.159Z,63.33
2018-12-17T03:02:36.957Z,61.70
2018-12-17T03:04:39.088Z,55.98
2018-12-17T03:06:41.210Z,61.08
2018-12-17T03:08:43.317Z,53.63
2018-12-17T03:10:45.411Z,53.70
2018-12-17T03:12:47.589Z,57.50
2018-12-17T03:14:49.721Z,58.23
2018-12-17T03:16:51.928Z,61.55
2018-12-17T03:18:54.035Z,70.52
2018-12-17T03:20:56.248Z,60.50
2018-12-17T03:22:58.491Z,56.68
2018-12-17T03:25:00.596Z,53.68
2018-12-17T03:27:02.707Z,56.42
2018-12-17T03:29:05.026Z,51.65
2018-12-17T03:31:07.135Z,58.42
2018-12-17T03:33:09.335Z,64.65
2018-12-17T03:35:11.723Z,49.88
2018-12-17T03:37:13.846Z,53.68
2018-12-17T03:39:15.992Z,50.88
2018-12-17T03:41:18.248Z,52.17
2018-12-17T03:43:20.351Z,51.75
2018-12-17T03:45:22.493Z,52.65
2018-12-17T03:47:24.614Z,56.37
2018-12-17T03:49:26.816Z,55.80
2018-12-17T03:51:28.944Z,55.08
2018-12-17T03:53:31.119Z,59.35
2018-12-17T03:55:33.223Z,53.80
2018-12-17T03:57:35.343Z,62.83
2018-12-17T03:59:37.624Z,59.27
2018-12-17T04:01:39.752Z,58.23
2018-12-17T04:03:41.871Z,61.90
2018-12-17T04:05:44.006Z,57.65
2018-12-17T04:07:46.250Z,53.45
2018-12-17T04:09:48.595Z,64.35
2018-12-17T04:11:50.776Z,61.30
2018-12-17T04:18:23.081Z,59.45
2018-12-17T04:20:25.223Z,60.92
2018-12-17T04:22:27.348Z,65.65
2018-12-17T04:24:29.483Z,69.27
2018-12-17T04:26:31.857Z,61.28
2018-12-17T04:28:34.042Z,70.32
2018-12-17T04:30:36.232Z,55.28
2018-12-17T04:32:38.395Z,86.00
2018-12-17T04:34:40.741Z,69.58
2018-12-17T04:36:42.980Z,71.42
2018-12-17T04:38:45.154Z,64.53
2018-12-17T04:40:47.538Z,65.12
2018-12-17T04:42:49.760Z,64.87
2018-12-17T04:44:51.909Z,63.45
2018-12-17T04:46:54.100Z,65.00
2018-12-17T04:48:56.255Z,70.55
2018-12-17T04:50:58.759Z,64.62
2018-12-17T04:53:00.913Z,66.62
2018-12-17T04:55:03.280Z,63.02
2018-12-17T04:57:05.537Z,75.20
2018-12-17T04:59:14.394Z,68.07
2018-12-17T05:01:12.014Z,66.87
2018-12-17T05:03:14.196Z,68.78
2018-12-17T05:05:16.349Z,65.32
2018-12-17T05:07:18.509Z,77.95
2018-12-17T05:09:20.653Z,78.30
2018-12-17T05:11:22.937Z,72.42
2018-12-17T05:13:25.121Z,74.85
2018-12-17T05:15:27.362Z,77.08
2018-12-17T05:17:30.426Z,75.45
2018-12-17T05:19:32.574Z,74.32
2018-12-17T05:21:34.780Z,68.85
2018-12-17T05:23:36.988Z,82.45
2018-12-17T05:25:39.155Z,73.95
2018-12-17T05:27:41.317Z,79.92
2018-12-17T05:29:43.529Z,73.02
2018-12-17T05:31:45.709Z,77.65
2018-12-17T05:33:47.879Z,88.78
2018-12-17T05:35:50.123Z,69.03
2018-12-17T05:37:52.301Z,74.03
2018-12-17T05:39:54.460Z,74.95
2018-12-17T05:41:56.644Z,82.47
2018-12-17T05:43:58.910Z,70.37
2018-12-17T05:46:01.164Z,79.55
2018-12-17T05:48:03.522Z,81.35
2018-12-17T05:50:05.706Z,80.65
2018-12-17T05:52:07.962Z,82.72
2018-12-17T05:54:10.130Z,101.27
2018-12-17T05:56:12.420Z,95.77
2018-12-17T05:58:14.605Z,96.87
2018-12-17T06:00:16.754Z,91.12
2018-12-17T06:02:18.932Z,87.12
2018-12-17T06:04:21.099Z,90.25
2018-12-17T06:06:23.248Z,86.28
2018-12-17T06:08:25.502Z,103.60
2018-12-17T06:10:27.710Z,104.78
2018-12-17T06:12:29.997Z,102.30
2018-12-17T06:14:32.173Z,96.02
2018-12-17T06:16:34.380Z,103.02
2018-12-17T06:18:36.687Z,125.72
2018-12-17T06:20:38.923Z,87.35
2018-12-17T06:22:42.045Z,91.97
2018-12-17T06:24:44.223Z,99.35
2018-12-17T06:26:46.497Z,92.85
2018-12-17T06:28:48.718Z,125.18
2018-12-17T06:30:51.641Z,87.05
2018-12-17T06:32:53.803Z,99.40
2018-12-17T06:34:56.005Z,98.27
2018-12-17T06:36:58.168Z,87.78
2018-12-17T06:39:00.448Z,85.50
2018-12-17T06:41:02.744Z,101.02
2018-12-17T06:43:04.908Z,102.27
2018-12-17T06:45:07.176Z,83.50
2018-12-17T06:47:09.349Z,90.12
2018-12-17T06:49:11.517Z,94.35
2018-12-17T06:51:13.722Z,105.47
2018-12-17T06:53:16.088Z,113.97
2018-12-17T06:55:18.279Z,124.70
2018-12-17T06:57:20.459Z,91.55
2018-12-17T06:59:22.820Z,90.40
2018-12-17T07:01:25.593Z,100.95
2018-12-17T07:03:27.741Z,91.22
2018-12-17T07:05:29.903Z,98.67
2018-12-17T07:07:32.547Z,95.30
2018-12-17T07:09:34.667Z,85.95
2018-12-17T07:11:36.836Z,92.97
2018-12-17T07:13:39.067Z,91.60
2018-12-17T07:15:41.200Z,88.22
2018-12-17T07:17:43.560Z,100.55
2018-12-17T07:19:45.892Z,103.62
2018-12-17T07:21:48.966Z,108.57
2018-12-17T07:23:51.151Z,94.22
2018-12-17T07:25:53.291Z,102.15
2018-12-17T07:27:55.457Z,100.67
2018-12-17T07:29:57.583Z,107.25
2018-12-17T07:31:59.749Z,85.55
2018-12-17T07:34:02.019Z,85.90
2018-12-17T07:36:04.157Z,81.67
2018-12-17T07:38:06.306Z,91.95
2018-12-17T07:40:08.715Z,93.03
2018-12-17T07:42:10.940Z,101.70
2018-12-17T07:44:13.107Z,98.82
2018-12-17T07:46:15.242Z,104.55
2018-12-17T07:48:17.468Z,107.47
2018-12-17T07:50:19.926Z,93.20
2018-12-17T07:52:22.068Z,122.02
2018-12-17T07:54:24.246Z,104.87
2018-12-17T07:56:26.584Z,96.78
2018-12-17T07:58:28.715Z,133.37
2018-12-17T08:00:30.884Z,94.03
2018-12-17T08:02:33.409Z,103.02
2018-12-17T08:04:35.743Z,90.17
2018-12-17T08:06:38.077Z,92.85
2018-12-17T08:08:40.289Z,97.45
2018-12-17T08:10:42.442Z,107.12
2018-12-17T08:12:45.726Z,122.90
2018-12-17T08:14:47.909Z,95.72
2018-12-17T08:16:50.476Z,102.20
2018-12-17T08:18:52.628Z,106.58
2018-12-17T08:20:54.988Z,97.80
2018-12-17T08:22:57.136Z,99.00
2018-12-17T08:24:59.409Z,96.60
2018-12-17T08:27:01.585Z,89.92
2018-12-17T08:29:03.744Z,111.77
2018-12-17T08:31:06.050Z,98.67
2018-12-17T08:33:12.503Z,101.75
2018-12-17T08:35:14.673Z,109.57
2018-12-17T08:37:16.877Z,92.78
2018-12-17T08:39:19.472Z,94.60
2018-12-17T08:41:21.660Z,91.80
2018-12-17T08:43:23.859Z,96.90
2018-12-17T08:45:26.256Z,88.40
2018-12-17T08:47:28.396Z,90.15
2018-12-17T08:49:30.592Z,93.62
2018-12-17T08:51:33.220Z,109.75
2018-12-17T08:53:35.422Z,100.22
2018-12-17T08:55:37.651Z,108.92
2018-12-17T08:57:39.846Z,89.55
2018-12-17T08:59:55.728Z,93.85
2018-12-17T09:01:59.065Z,98.33
2018-12-17T09:04:01.946Z,117.65
2018-12-17T09:06:04.144Z,91.97
2018-12-17T09:08:24.680Z,102.72
2018-12-17T09:10:27.017Z,86.75
2018-12-17T09:12:29.226Z,93.10
2018-12-17T09:14:31.447Z,104.32
2018-12-17T09:16:33.935Z,100.53
2018-12-17T09:18:37.259Z,107.55
2018-12-17T09:20:39.483Z,99.15
2018-12-17T09:22:41.662Z,102.27
2018-12-17T09:24:43.839Z,100.97
2018-12-17T09:26:46.012Z,114.88
2018-12-17T09:28:48.191Z,91.80
2018-12-17T09:30:50.320Z,99.10
2018-12-17T09:32:52.646Z,107.30
2018-12-17T09:34:54.828Z,108.87
2018-12-17T09:36:57.005Z,97.62
2018-12-17T09:38:59.153Z,98.90
2018-12-17T09:41:01.505Z,96.85
2018-12-17T09:43:03.931Z,114.70
2018-12-17T09:57:55.796Z,145.02
2018-12-17T09:59:58.023Z,97.25
2018-12-17T10:02:00.173Z,115.90
2018-12-17T10:04:02.460Z,118.15
2018-12-17T10:06:04.658Z,128.50
2018-12-17T10:08:06.924Z,132.00
2018-12-17T10:10:10.323Z,102.60
2018-12-17T10:12:12.491Z,115.97
2018-12-17T10:14:14.773Z,129.38
2018-12-17T10:16:17.065Z,93.58
2018-12-17T10:18:19.235Z,130.07
2018-12-17T10:20:21.473Z,108.20
2018-12-17T10:22:25.083Z,126.90
2018-12-17T10:24:27.703Z,126.38
2018-12-17T10:26:30.103Z,101.70
2018-12-17T10:28:32.560Z,118.13
2018-12-17T10:30:34.741Z,105.75
2018-12-17T10:32:36.974Z,148.25
2018-12-17T10:34:39.400Z,145.02
2018-12-17T10:36:41.548Z,112.17
2018-12-17T10:38:44.041Z,147.55
2018-12-17T10:40:46.237Z,125.15
2018-12-17T10:42:48.651Z,146.93
2018-12-17T10:44:50.905Z,158.82
2018-12-17T10:46:53.059Z,122.13
2018-12-17T10:48:55.272Z,181.93
2018-12-17T10:51:00.699Z,116.03
2018-12-17T23:57:39.147Z,109.12
2018-12-17T23:59:41.936Z,102.78
